sensor_id;sensor_type;location;lat;lon;timestamp;temperature;humidity
6357;DHT22;3211;53.452;-2.264;2022-11-20T00:01:04;8.00;99.90
6357;DHT22;3211;53.452;-2.264;2022-11-20T00:03:32;8.00;99.90
6357;DHT22;3211;53.452;-2.264;2022-11-20T00:06:00;8.00;99.90
6357;DHT22;3211;53.452;-2.264;2022-11-20T00:08:34;8.00;99.90
6357;DHT22;3211;53.452;-2.264;2022-11-20T00:11:03;8.00;99.90
6357;DHT22;3211;53.452;-2.264;2022-11-20T00:13:51;8.00;99.90
6357;DHT22;3211;53.452;-2.264;2022-11-20T00:16:19;8.10;99.90
6357;DHT22;3211;53.452;-2.264;2022-11-20T00:18:47;8.10;99.90
6357;DHT22;3211;53.452;-2.264;2022-11-20T00:21:16;8.10;99.90
6357;DHT22;3211;53.452;-2.264;2022-11-20T00:23:45;8.10;99.90
6357;DHT22;3211;53.452;-2.264;2022-11-20T00:26:13;8.10;99.90
6357;DHT22;3211;53.452;-2.264;2022-11-20T00:29:00;8.10;99.90
6357;DHT22;3211;53.452;-2.264;2022-11-20T00:31:28;8.10;99.90
6357;DHT22;3211;53.452;-2.264;2022-11-20T00:33:55;8.10;99.90
6357;DHT22;3211;53.452;-2.264;2022-11-20T00:36:24;8.10;99.90
6357;DHT22;3211;53.452;-2.264;2022-11-20T00:38:53;8.10;99.90
6357;DHT22;3211;53.452;-2.264;2022-11-20T00:41:24;8.00;99.90
6357;DHT22;3211;53.452;-2.264;2022-11-20T00:43:52;8.00;99.90
6357;DHT22;3211;53.452;-2.264;2022-11-20T00:46:21;8.00;99.90
6357;DHT22;3211;53.452;-2.264;2022-11-20T00:48:48;8.10;99.90
6357;DHT22;3211;53.452;-2.264;2022-11-20T00:51:20;8.10;99.90
6357;DHT22;3211;53.452;-2.264;2022-11-20T00:53:48;8.10;99.90
6357;DHT22;3211;53.452;-2.264;2022-11-20T00:56:18;8.10;99.90
6357;DHT22;3211;53.452;-2.264;2022-11-20T00:58:47;8.10;99.90
6357;DHT22;3211;53.452;-2.264;2022-11-20T01:01:16;8.00;99.90
6357;DHT22;3211;53.452;-2.264;2022-11-20T01:03:44;7.90;99.90
6357;DHT22;3211;53.452;-2.264;2022-11-20T01:06:14;7.90;99.90
6357;DHT22;3211;53.452;-2.264;2022-11-20T01:08:41;7.80;99.90
6357;DHT22;3211;53.452;-2.264;2022-11-20T01:11:10;7.80;99.90
6357;DHT22;3211;53.452;-2.264;2022-11-20T01:13:58;7.70;99.90
6357;DHT22;3211;53.452;-2.264;2022-11-20T01:16:27;7.70;99.90
6357;DHT22;3211;53.452;-2.264;2022-11-20T01:18:56;7.60;99.90
6357;DHT22;3211;53.452;-2.264;2022-11-20T01:21:25;7.70;99.90
6357;DHT22;3211;53.452;-2.264;2022-11-20T01:23:53;7.70;99.90
6357;DHT22;3211;53.452;-2.264;2022-11-20T01:26:25;7.60;99.90
6357;DHT22;3211;53.452;-2.264;2022-11-20T01:28:54;7.50;99.90
6357;DHT22;3211;53.452;-2.264;2022-11-20T01:31:24;7.50;99.90
6357;DHT22;3211;53.452;-2.264;2022-11-20T01:33:54;7.40;99.90
6357;DHT22;3211;53.452;-2.264;2022-11-20T01:36:23;7.40;99.90
6357;DHT22;3211;53.452;-2.264;2022-11-20T01:38:51;7.40;99.90
6357;DHT22;3211;53.452;-2.264;2022-11-20T01:41:18;7.40;99.90
6357;DHT22;3211;53.452;-2.264;2022-11-20T01:44:01;7.40;99.90
6357;DHT22;3211;53.452;-2.264;2022-11-20T01:46:30;7.30;99.90
6357;DHT22;3211;53.452;-2.264;2022-11-20T01:49:00;7.40;99.90
6357;DHT22;3211;53.452;-2.264;2022-11-20T01:51:31;7.30;99.90
6357;DHT22;3211;53.452;-2.264;2022-11-20T01:54:01;7.30;99.90
6357;DHT22;3211;53.452;-2.264;2022-11-20T01:56:31;7.20;99.90
6357;DHT22;3211;53.452;-2.264;2022-11-20T01:59:04;7.20;99.90
6357;DHT22;3211;53.452;-2.264;2022-11-20T02:01:33;7.30;99.90
6357;DHT22;3211;53.452;-2.264;2022-11-20T02:04:01;7.20;99.90
6357;DHT22;3211;53.452;-2.264;2022-11-20T02:06:35;7.20;99.90
6357;DHT22;3211;53.452;-2.264;2022-11-20T02:09:05;7.10;99.90
6357;DHT22;3211;53.452;-2.264;2022-11-20T02:11:32;7.10;99.90
6357;DHT22;3211;53.452;-2.264;2022-11-20T02:13:59;7.20;99.90
6357;DHT22;3211;53.452;-2.264;2022-11-20T02:16:33;7.20;99.90
6357;DHT22;3211;53.452;-2.264;2022-11-20T02:19:03;7.20;99.90
6357;DHT22;3211;53.452;-2.264;2022-11-20T02:21:35;7.20;99.90
6357;DHT22;3211;53.452;-2.264;2022-11-20T02:24:10;7.20;99.90
6357;DHT22;3211;53.452;-2.264;2022-11-20T02:26:45;7.10;99.90
6357;DHT22;3211;53.452;-2.264;2022-11-20T02:29:35;7.10;99.90
6357;DHT22;3211;53.452;-2.264;2022-11-20T02:32:04;7.20;99.90
6357;DHT22;3211;53.452;-2.264;2022-11-20T02:34:49;7.10;99.90
6357;DHT22;3211;53.452;-2.264;2022-11-20T02:37:17;7.10;99.90
6357;DHT22;3211;53.452;-2.264;2022-11-20T02:39:47;7.10;99.90
6357;DHT22;3211;53.452;-2.264;2022-11-20T02:42:18;7.10;99.90
6357;DHT22;3211;53.452;-2.264;2022-11-20T02:44:45;7.20;99.90
6357;DHT22;3211;53.452;-2.264;2022-11-20T02:47:14;7.20;99.90
6357;DHT22;3211;53.452;-2.264;2022-11-20T02:49:41;7.20;99.90
6357;DHT22;3211;53.452;-2.264;2022-11-20T02:52:08;7.20;99.90
6357;DHT22;3211;53.452;-2.264;2022-11-20T02:54:55;7.20;99.90
6357;DHT22;3211;53.452;-2.264;2022-11-20T02:57:22;7.20;99.90
6357;DHT22;3211;53.452;-2.264;2022-11-20T02:59:49;7.30;99.90
6357;DHT22;3211;53.452;-2.264;2022-11-20T03:02:16;7.20;99.90
6357;DHT22;3211;53.452;-2.264;2022-11-20T03:04:43;7.30;99.90
6357;DHT22;3211;53.452;-2.264;2022-11-20T03:07:10;7.20;99.90
6357;DHT22;3211;53.452;-2.264;2022-11-20T03:09:57;7.20;99.90
6357;DHT22;3211;53.452;-2.264;2022-11-20T03:12:24;7.20;99.90
6357;DHT22;3211;53.452;-2.264;2022-11-20T03:14:51;7.20;99.90
6357;DHT22;3211;53.452;-2.264;2022-11-20T03:17:18;7.10;99.90
6357;DHT22;3211;53.452;-2.264;2022-11-20T03:19:45;7.20;99.90
6357;DHT22;3211;53.452;-2.264;2022-11-20T03:22:15;7.10;99.90
6357;DHT22;3211;53.452;-2.264;2022-11-20T03:24:42;7.10;99.90
6357;DHT22;3211;53.452;-2.264;2022-11-20T03:27:10;7.10;99.90
6357;DHT22;3211;53.452;-2.264;2022-11-20T03:29:56;7.30;99.90
6357;DHT22;3211;53.452;-2.264;2022-11-20T03:32:23;7.20;99.90
6357;DHT22;3211;53.452;-2.264;2022-11-20T03:34:50;7.10;99.90
6357;DHT22;3211;53.452;-2.264;2022-11-20T03:37:19;7.10;99.90
6357;DHT22;3211;53.452;-2.264;2022-11-20T03:39:46;7.20;99.90
6357;DHT22;3211;53.452;-2.264;2022-11-20T03:42:17;7.20;99.90
6357;DHT22;3211;53.452;-2.264;2022-11-20T03:44:58;7.10;99.90
6357;DHT22;3211;53.452;-2.264;2022-11-20T03:47:25;7.10;99.90
6357;DHT22;3211;53.452;-2.264;2022-11-20T03:49:52;7.20;99.90
6357;DHT22;3211;53.452;-2.264;2022-11-20T03:52:22;7.10;99.90
6357;DHT22;3211;53.452;-2.264;2022-11-20T03:54:49;7.10;99.90
6357;DHT22;3211;53.452;-2.264;2022-11-20T03:57:20;7.10;99.90
6357;DHT22;3211;53.452;-2.264;2022-11-20T03:59:47;7.10;99.90
6357;DHT22;3211;53.452;-2.264;2022-11-20T04:02:14;7.10;99.90
6357;DHT22;3211;53.452;-2.264;2022-11-20T04:04:41;7.10;99.90
6357;DHT22;3211;53.452;-2.264;2022-11-20T04:07:08;7.10;99.90
6357;DHT22;3211;53.452;-2.264;2022-11-20T04:09:53;7.10;99.90
6357;DHT22;3211;53.452;-2.264;2022-11-20T04:12:22;7.10;99.90
6357;DHT22;3211;53.452;-2.264;2022-11-20T04:14:49;7.30;99.90
6357;DHT22;3211;53.452;-2.264;2022-11-20T04:17:16;7.20;99.90
6357;DHT22;3211;53.452;-2.264;2022-11-20T04:19:43;7.30;99.90
6357;DHT22;3211;53.452;-2.264;2022-11-20T04:22:09;7.30;99.90
6357;DHT22;3211;53.452;-2.264;2022-11-20T04:24:37;7.20;99.90
6357;DHT22;3211;53.452;-2.264;2022-11-20T04:27:04;7.30;99.90
6357;DHT22;3211;53.452;-2.264;2022-11-20T04:29:51;7.20;99.90
6357;DHT22;3211;53.452;-2.264;2022-11-20T04:32:18;7.30;99.90
6357;DHT22;3211;53.452;-2.264;2022-11-20T04:34:45;7.20;99.90
6357;DHT22;3211;53.452;-2.264;2022-11-20T04:37:12;7.20;99.90
6357;DHT22;3211;53.452;-2.264;2022-11-20T04:39:39;7.20;99.90
6357;DHT22;3211;53.452;-2.264;2022-11-20T04:42:07;7.20;99.90
6357;DHT22;3211;53.452;-2.264;2022-11-20T04:44:54;7.30;99.90
6357;DHT22;3211;53.452;-2.264;2022-11-20T04:47:21;7.20;99.90
6357;DHT22;3211;53.452;-2.264;2022-11-20T04:49:48;7.30;99.90
6357;DHT22;3211;53.452;-2.264;2022-11-20T04:52:18;7.30;99.90
6357;DHT22;3211;53.452;-2.264;2022-11-20T04:54:45;7.40;99.90
6357;DHT22;3211;53.452;-2.264;2022-11-20T04:57:14;7.40;99.90
6357;DHT22;3211;53.452;-2.264;2022-11-20T04:59:42;7.30;99.90
6357;DHT22;3211;53.452;-2.264;2022-11-20T05:02:11;7.40;99.90
6357;DHT22;3211;53.452;-2.264;2022-11-20T05:04:38;7.40;99.90
6357;DHT22;3211;53.452;-2.264;2022-11-20T05:07:05;7.40;99.90
6357;DHT22;3211;53.452;-2.264;2022-11-20T05:09:32;7.40;99.90
6357;DHT22;3211;53.452;-2.264;2022-11-20T05:11:59;7.40;99.90
6357;DHT22;3211;53.452;-2.264;2022-11-20T05:14:26;7.40;99.90
6357;DHT22;3211;53.452;-2.264;2022-11-20T05:16:53;7.50;99.90
6357;DHT22;3211;53.452;-2.264;2022-11-20T05:19:21;7.40;99.90
6357;DHT22;3211;53.452;-2.264;2022-11-20T05:21:48;7.40;99.90
6357;DHT22;3211;53.452;-2.264;2022-11-20T05:24:34;7.40;99.90
6357;DHT22;3211;53.452;-2.264;2022-11-20T05:27:01;7.40;99.90
6357;DHT22;3211;53.452;-2.264;2022-11-20T05:29:46;7.40;99.90
6357;DHT22;3211;53.452;-2.264;2022-11-20T05:32:13;7.50;99.90
6357;DHT22;3211;53.452;-2.264;2022-11-20T05:35:00;7.50;99.90
6357;DHT22;3211;53.452;-2.264;2022-11-20T05:37:27;7.60;99.90
6357;DHT22;3211;53.452;-2.264;2022-11-20T05:39:54;7.60;99.90
6357;DHT22;3211;53.452;-2.264;2022-11-20T05:42:21;7.60;99.90
6357;DHT22;3211;53.452;-2.264;2022-11-20T05:44:57;7.60;99.90
6357;DHT22;3211;53.452;-2.264;2022-11-20T05:47:24;7.60;99.90
6357;DHT22;3211;53.452;-2.264;2022-11-20T05:49:51;7.60;99.90
6357;DHT22;3211;53.452;-2.264;2022-11-20T05:52:22;7.60;99.90
6357;DHT22;3211;53.452;-2.264;2022-11-20T05:54:49;7.60;99.90
6357;DHT22;3211;53.452;-2.264;2022-11-20T05:57:19;7.60;99.90
6357;DHT22;3211;53.452;-2.264;2022-11-20T05:59:46;7.60;99.90
6357;DHT22;3211;53.452;-2.264;2022-11-20T06:02:13;7.60;99.90
6357;DHT22;3211;53.452;-2.264;2022-11-20T06:04:40;7.50;99.90
6357;DHT22;3211;53.452;-2.264;2022-11-20T06:07:07;7.60;99.90
6357;DHT22;3211;53.452;-2.264;2022-11-20T06:09:36;7.60;99.90
6357;DHT22;3211;53.452;-2.264;2022-11-20T06:12:03;7.60;99.90
6357;DHT22;3211;53.452;-2.264;2022-11-20T06:14:30;7.60;99.90
6357;DHT22;3211;53.452;-2.264;2022-11-20T06:16:57;7.60;99.90
6357;DHT22;3211;53.452;-2.264;2022-11-20T06:19:24;7.70;99.90
6357;DHT22;3211;53.452;-2.264;2022-11-20T06:21:51;7.60;99.90
6357;DHT22;3211;53.452;-2.264;2022-11-20T06:24:38;7.60;99.90
6357;DHT22;3211;53.452;-2.264;2022-11-20T06:27:05;7.60;99.90
6357;DHT22;3211;53.452;-2.264;2022-11-20T06:29:32;7.60;99.90
6357;DHT22;3211;53.452;-2.264;2022-11-20T06:32:00;7.50;99.90
6357;DHT22;3211;53.452;-2.264;2022-11-20T06:34:46;7.70;99.90
6357;DHT22;3211;53.452;-2.264;2022-11-20T06:37:13;7.60;99.90
6357;DHT22;3211;53.452;-2.264;2022-11-20T06:39:41;7.60;99.90
6357;DHT22;3211;53.452;-2.264;2022-11-20T06:42:08;7.50;99.90
6357;DHT22;3211;53.452;-2.264;2022-11-20T06:44:53;7.40;99.90
6357;DHT22;3211;53.452;-2.264;2022-11-20T06:47:20;7.40;99.90
6357;DHT22;3211;53.452;-2.264;2022-11-20T06:49:47;7.30;99.90
6357;DHT22;3211;53.452;-2.264;2022-11-20T06:52:17;7.30;99.90
6357;DHT22;3211;53.452;-2.264;2022-11-20T06:54:46;7.30;99.90
6357;DHT22;3211;53.452;-2.264;2022-11-20T06:57:13;7.30;99.90
6357;DHT22;3211;53.452;-2.264;2022-11-20T06:59:40;7.30;99.90
6357;DHT22;3211;53.452;-2.264;2022-11-20T07:02:09;7.20;99.90
6357;DHT22;3211;53.452;-2.264;2022-11-20T07:04:36;7.20;99.90
6357;DHT22;3211;53.452;-2.264;2022-11-20T07:07:03;7.30;99.90
6357;DHT22;3211;53.452;-2.264;2022-11-20T07:09:31;7.30;99.90
6357;DHT22;3211;53.452;-2.264;2022-11-20T07:12:00;7.30;99.90
6357;DHT22;3211;53.452;-2.264;2022-11-20T07:14:45;7.30;99.90
6357;DHT22;3211;53.452;-2.264;2022-11-20T07:17:12;7.40;99.90
6357;DHT22;3211;53.452;-2.264;2022-11-20T07:19:39;7.40;99.90
6357;DHT22;3211;53.452;-2.264;2022-11-20T07:22:08;7.30;99.90
6357;DHT22;3211;53.452;-2.264;2022-11-20T07:24:53;7.30;99.90
6357;DHT22;3211;53.452;-2.264;2022-11-20T07:27:22;7.30;99.90
6357;DHT22;3211;53.452;-2.264;2022-11-20T07:29:49;7.30;99.90
6357;DHT22;3211;53.452;-2.264;2022-11-20T07:32:16;7.30;99.90
6357;DHT22;3211;53.452;-2.264;2022-11-20T07:34:43;7.20;99.90
6357;DHT22;3211;53.452;-2.264;2022-11-20T07:37:10;7.40;99.90
6357;DHT22;3211;53.452;-2.264;2022-11-20T07:39:55;7.50;99.90
6357;DHT22;3211;53.452;-2.264;2022-11-20T07:42:23;7.50;99.90
6357;DHT22;3211;53.452;-2.264;2022-11-20T07:44:50;7.50;99.90
6357;DHT22;3211;53.452;-2.264;2022-11-20T07:47:20;7.60;99.90
6357;DHT22;3211;53.452;-2.264;2022-11-20T07:49:47;7.70;99.90
6357;DHT22;3211;53.452;-2.264;2022-11-20T07:52:17;7.60;99.90
6357;DHT22;3211;53.452;-2.264;2022-11-20T07:54:44;7.60;99.90
6357;DHT22;3211;53.452;-2.264;2022-11-20T07:57:14;7.50;99.90
6357;DHT22;3211;53.452;-2.264;2022-11-20T07:59:42;7.50;99.90
6357;DHT22;3211;53.452;-2.264;2022-11-20T08:02:11;7.50;99.90
6357;DHT22;3211;53.452;-2.264;2022-11-20T08:04:38;7.50;99.90
6357;DHT22;3211;53.452;-2.264;2022-11-20T08:07:05;7.60;99.90
6357;DHT22;3211;53.452;-2.264;2022-11-20T08:09:32;7.60;99.90
6357;DHT22;3211;53.452;-2.264;2022-11-20T08:11:59;7.60;99.90
6357;DHT22;3211;53.452;-2.264;2022-11-20T08:15:06;7.70;99.90
6357;DHT22;3211;53.452;-2.264;2022-11-20T08:17:33;7.70;99.90
6357;DHT22;3211;53.452;-2.264;2022-11-20T08:20:00;7.60;99.90
6357;DHT22;3211;53.452;-2.264;2022-11-20T08:22:27;7.60;99.90
6357;DHT22;3211;53.452;-2.264;2022-11-20T08:24:54;7.60;99.90
6357;DHT22;3211;53.452;-2.264;2022-11-20T08:27:21;7.70;99.90
6357;DHT22;3211;53.452;-2.264;2022-11-20T08:29:48;7.70;99.90
6357;DHT22;3211;53.452;-2.264;2022-11-20T08:32:16;7.70;99.90
6357;DHT22;3211;53.452;-2.264;2022-11-20T08:34:43;7.80;99.90
6357;DHT22;3211;53.452;-2.264;2022-11-20T08:37:13;7.70;99.90
6357;DHT22;3211;53.452;-2.264;2022-11-20T08:39:40;7.70;99.90
6357;DHT22;3211;53.452;-2.264;2022-11-20T08:42:07;7.70;99.90
6357;DHT22;3211;53.452;-2.264;2022-11-20T08:44:34;7.70;99.90
6357;DHT22;3211;53.452;-2.264;2022-11-20T08:47:01;7.80;99.90
6357;DHT22;3211;53.452;-2.264;2022-11-20T08:49:47;7.80;99.90
6357;DHT22;3211;53.452;-2.264;2022-11-20T08:52:14;7.80;99.90
6357;DHT22;3211;53.452;-2.264;2022-11-20T08:54:41;7.80;99.90
6357;DHT22;3211;53.452;-2.264;2022-11-20T08:57:11;7.80;99.90
6357;DHT22;3211;53.452;-2.264;2022-11-20T08:59:38;7.80;99.90
6357;DHT22;3211;53.452;-2.264;2022-11-20T09:02:05;7.80;99.90
6357;DHT22;3211;53.452;-2.264;2022-11-20T09:04:32;7.80;99.90
6357;DHT22;3211;53.452;-2.264;2022-11-20T09:07:01;7.80;99.90
6357;DHT22;3211;53.452;-2.264;2022-11-20T09:09:47;7.80;99.90
6357;DHT22;3211;53.452;-2.264;2022-11-20T09:12:14;7.90;99.90
6357;DHT22;3211;53.452;-2.264;2022-11-20T09:14:41;7.90;99.90
6357;DHT22;3211;53.452;-2.264;2022-11-20T09:17:10;7.90;99.90
6357;DHT22;3211;53.452;-2.264;2022-11-20T09:19:40;7.90;99.90
6357;DHT22;3211;53.452;-2.264;2022-11-20T09:22:08;7.90;99.90
6357;DHT22;3211;53.452;-2.264;2022-11-20T09:24:35;8.00;99.90
6357;DHT22;3211;53.452;-2.264;2022-11-20T09:27:03;8.00;99.90
6357;DHT22;3211;53.452;-2.264;2022-11-20T09:29:49;7.90;99.90
6357;DHT22;3211;53.452;-2.264;2022-11-20T09:32:16;8.00;99.90
6357;DHT22;3211;53.452;-2.264;2022-11-20T09:34:43;8.10;99.90
6357;DHT22;3211;53.452;-2.264;2022-11-20T09:37:11;8.10;99.90
6357;DHT22;3211;53.452;-2.264;2022-11-20T09:39:38;8.20;99.90
6357;DHT22;3211;53.452;-2.264;2022-11-20T09:42:21;8.20;99.90
6357;DHT22;3211;53.452;-2.264;2022-11-20T09:48:03;8.20;99.90
6357;DHT22;3211;53.452;-2.264;2022-11-20T09:50:53;8.20;99.90
6357;DHT22;3211;53.452;-2.264;2022-11-20T09:53:30;8.40;99.90
6357;DHT22;3211;53.452;-2.264;2022-11-20T09:55:58;8.60;99.90
6357;DHT22;3211;53.452;-2.264;2022-11-20T09:58:30;8.80;99.90
6357;DHT22;3211;53.452;-2.264;2022-11-20T10:01:03;8.80;99.90
6357;DHT22;3211;53.452;-2.264;2022-11-20T10:03:39;8.70;99.90
6357;DHT22;3211;53.452;-2.264;2022-11-20T10:06:12;8.80;99.90
6357;DHT22;3211;53.452;-2.264;2022-11-20T10:08:45;9.10;99.90
6357;DHT22;3211;53.452;-2.264;2022-11-20T10:11:24;9.30;99.90
6357;DHT22;3211;53.452;-2.264;2022-11-20T10:14:03;9.30;99.90
6357;DHT22;3211;53.452;-2.264;2022-11-20T10:16:38;9.30;99.90
6357;DHT22;3211;53.452;-2.264;2022-11-20T10:19:20;9.30;99.90
6357;DHT22;3211;53.452;-2.264;2022-11-20T10:21:58;9.50;99.90
6357;DHT22;3211;53.452;-2.264;2022-11-20T10:24:55;9.60;99.90
6357;DHT22;3211;53.452;-2.264;2022-11-20T10:27:53;9.70;99.90
6357;DHT22;3211;53.452;-2.264;2022-11-20T10:30:23;9.70;99.90
6357;DHT22;3211;53.452;-2.264;2022-11-20T10:32:54;9.90;99.90
6357;DHT22;3211;53.452;-2.264;2022-11-20T10:35:28;9.90;99.90
6357;DHT22;3211;53.452;-2.264;2022-11-20T10:38:00;9.80;99.90
6357;DHT22;3211;53.452;-2.264;2022-11-20T10:40:35;9.80;99.90
6357;DHT22;3211;53.452;-2.264;2022-11-20T10:43:32;9.70;99.90
6357;DHT22;3211;53.452;-2.264;2022-11-20T10:46:03;9.80;99.90
6357;DHT22;3211;53.452;-2.264;2022-11-20T10:48:51;10.10;99.90
6357;DHT22;3211;53.452;-2.264;2022-11-20T10:51:33;10.40;99.90
6357;DHT22;3211;53.452;-2.264;2022-11-20T10:54:16;10.40;99.90
6357;DHT22;3211;53.452;-2.264;2022-11-20T10:56:49;10.60;99.90
6357;DHT22;3211;53.452;-2.264;2022-11-20T10:59:45;10.40;99.90
6357;DHT22;3211;53.452;-2.264;2022-11-20T11:02:16;10.30;99.90
6357;DHT22;3211;53.452;-2.264;2022-11-20T11:04:46;10.20;99.90
6357;DHT22;3211;53.452;-2.264;2022-11-20T11:07:19;10.20;99.90
6357;DHT22;3211;53.452;-2.264;2022-11-20T11:09:49;10.10;99.90
6357;DHT22;3211;53.452;-2.264;2022-11-20T11:12:19;10.40;99.90
6357;DHT22;3211;53.452;-2.264;2022-11-20T11:14:48;10.30;99.90
6357;DHT22;3211;53.452;-2.264;2022-11-20T11:17:25;10.30;99.90
6357;DHT22;3211;53.452;-2.264;2022-11-20T11:19:58;10.70;99.90
6357;DHT22;3211;53.452;-2.264;2022-11-20T11:22:25;10.90;99.90
6357;DHT22;3211;53.452;-2.264;2022-11-20T11:24:54;10.80;99.90
6357;DHT22;3211;53.452;-2.264;2022-11-20T11:27:25;11.00;99.90
6357;DHT22;3211;53.452;-2.264;2022-11-20T11:30:12;11.00;99.90
6357;DHT22;3211;53.452;-2.264;2022-11-20T11:32:39;11.00;99.90
6357;DHT22;3211;53.452;-2.264;2022-11-20T11:35:27;10.90;99.90
6357;DHT22;3211;53.452;-2.264;2022-11-20T11:38:03;11.50;99.90
6357;DHT22;3211;53.452;-2.264;2022-11-20T11:40:53;11.50;99.90
6357;DHT22;3211;53.452;-2.264;2022-11-20T11:43:23;11.50;99.90
6357;DHT22;3211;53.452;-2.264;2022-11-20T11:46:32;11.70;99.90
6357;DHT22;3211;53.452;-2.264;2022-11-20T11:49:01;12.10;99.90
6357;DHT22;3211;53.452;-2.264;2022-11-20T11:51:34;12.00;99.90
6357;DHT22;3211;53.452;-2.264;2022-11-20T11:54:21;11.70;99.90
6357;DHT22;3211;53.452;-2.264;2022-11-20T11:56:51;11.70;99.90
6357;DHT22;3211;53.452;-2.264;2022-11-20T11:59:25;12.20;99.90
6357;DHT22;3211;53.452;-2.264;2022-11-20T12:01:56;12.20;99.90
6357;DHT22;3211;53.452;-2.264;2022-11-20T12:04:39;12.00;99.90
6357;DHT22;3211;53.452;-2.264;2022-11-20T12:07:11;12.20;99.90
6357;DHT22;3211;53.452;-2.264;2022-11-20T12:09:43;12.00;99.90
6357;DHT22;3211;53.452;-2.264;2022-11-20T12:12:36;12.30;99.90
6357;DHT22;3211;53.452;-2.264;2022-11-20T12:15:11;11.70;99.90
6357;DHT22;3211;53.452;-2.264;2022-11-20T12:17:38;11.70;99.90
6357;DHT22;3211;53.452;-2.264;2022-11-20T12:20:11;11.60;99.90
6357;DHT22;3211;53.452;-2.264;2022-11-20T12:22:43;11.40;99.90
6357;DHT22;3211;53.452;-2.264;2022-11-20T12:25:19;11.50;99.90
6357;DHT22;3211;53.452;-2.264;2022-11-20T12:28:00;11.20;99.90
6357;DHT22;3211;53.452;-2.264;2022-11-20T12:30:32;11.10;99.90
6357;DHT22;3211;53.452;-2.264;2022-11-20T12:33:12;11.10;99.90
6357;DHT22;3211;53.452;-2.264;2022-11-20T12:35:54;11.00;99.90
6357;DHT22;3211;53.452;-2.264;2022-11-20T12:41:34;11.10;99.90
6357;DHT22;3211;53.452;-2.264;2022-11-20T12:44:34;11.10;99.90
6357;DHT22;3211;53.452;-2.264;2022-11-20T12:47:32;11.10;99.90
6357;DHT22;3211;53.452;-2.264;2022-11-20T12:50:06;10.90;99.90
6357;DHT22;3211;53.452;-2.264;2022-11-20T12:52:45;10.90;99.90
6357;DHT22;3211;53.452;-2.264;2022-11-20T12:55:23;11.00;99.90
6357;DHT22;3211;53.452;-2.264;2022-11-20T12:57:57;10.80;99.90
6357;DHT22;3211;53.452;-2.264;2022-11-20T13:00:25;10.90;99.90
6357;DHT22;3211;53.452;-2.264;2022-11-20T13:03:16;10.70;99.90
6357;DHT22;3211;53.452;-2.264;2022-11-20T13:06:02;10.80;99.90
6357;DHT22;3211;53.452;-2.264;2022-11-20T13:08:34;10.70;99.90
6357;DHT22;3211;53.452;-2.264;2022-11-20T13:11:08;10.70;99.90
6357;DHT22;3211;53.452;-2.264;2022-11-20T13:13:44;10.60;99.90
6357;DHT22;3211;53.452;-2.264;2022-11-20T13:16:36;10.60;99.90
6357;DHT22;3211;53.452;-2.264;2022-11-20T13:19:10;10.50;99.90
6357;DHT22;3211;53.452;-2.264;2022-11-20T13:21:39;10.60;99.90
6357;DHT22;3211;53.452;-2.264;2022-11-20T13:24:07;10.50;99.90
6357;DHT22;3211;53.452;-2.264;2022-11-20T13:26:34;10.50;99.90
6357;DHT22;3211;53.452;-2.264;2022-11-20T13:29:09;10.50;99.90
6357;DHT22;3211;53.452;-2.264;2022-11-20T13:31:41;10.50;99.90
6357;DHT22;3211;53.452;-2.264;2022-11-20T13:34:13;10.50;99.90
6357;DHT22;3211;53.452;-2.264;2022-11-20T13:36:49;10.50;99.90
6357;DHT22;3211;53.452;-2.264;2022-11-20T13:39:24;10.40;99.90
6357;DHT22;3211;53.452;-2.264;2022-11-20T13:42:23;10.40;99.90
6357;DHT22;3211;53.452;-2.264;2022-11-20T13:44:54;10.40;99.90
6357;DHT22;3211;53.452;-2.264;2022-11-20T13:47:23;10.40;99.90
6357;DHT22;3211;53.452;-2.264;2022-11-20T13:49:53;10.30;99.90
6357;DHT22;3211;53.452;-2.264;2022-11-20T13:52:39;10.30;99.90
6357;DHT22;3211;53.452;-2.264;2022-11-20T13:55:19;10.30;99.90
6357;DHT22;3211;53.452;-2.264;2022-11-20T13:58:09;10.30;99.90
6357;DHT22;3211;53.452;-2.264;2022-11-20T14:00:45;10.30;99.90
6357;DHT22;3211;53.452;-2.264;2022-11-20T14:03:18;10.30;99.90
6357;DHT22;3211;53.452;-2.264;2022-11-20T14:05:51;10.30;99.90
6357;DHT22;3211;53.452;-2.264;2022-11-20T14:08:26;10.30;99.90
6357;DHT22;3211;53.452;-2.264;2022-11-20T14:11:12;10.30;99.90
6357;DHT22;3211;53.452;-2.264;2022-11-20T14:13:57;10.40;99.90
6357;DHT22;3211;53.452;-2.264;2022-11-20T14:16:26;10.30;99.90
6357;DHT22;3211;53.452;-2.264;2022-11-20T14:18:54;10.20;99.90
6357;DHT22;3211;53.452;-2.264;2022-11-20T14:21:24;10.20;99.90
6357;DHT22;3211;53.452;-2.264;2022-11-20T14:24:03;10.20;99.90
6357;DHT22;3211;53.452;-2.264;2022-11-20T14:26:31;10.10;99.90
6357;DHT22;3211;53.452;-2.264;2022-11-20T14:28:58;10.10;99.90
6357;DHT22;3211;53.452;-2.264;2022-11-20T14:31:26;10.20;99.90
6357;DHT22;3211;53.452;-2.264;2022-11-20T14:33:54;10.20;99.90
6357;DHT22;3211;53.452;-2.264;2022-11-20T14:36:24;10.20;99.90
6357;DHT22;3211;53.452;-2.264;2022-11-20T14:38:52;10.10;99.90
6357;DHT22;3211;53.452;-2.264;2022-11-20T14:41:21;9.90;99.90
6357;DHT22;3211;53.452;-2.264;2022-11-20T14:43:52;9.90;99.90
6357;DHT22;3211;53.452;-2.264;2022-11-20T14:46:21;9.90;99.90
6357;DHT22;3211;53.452;-2.264;2022-11-20T14:48:50;9.80;99.90
6357;DHT22;3211;53.452;-2.264;2022-11-20T14:51:27;9.70;99.90
6357;DHT22;3211;53.452;-2.264;2022-11-20T14:53:54;9.70;99.90
6357;DHT22;3211;53.452;-2.264;2022-11-20T14:56:22;9.50;99.90
6357;DHT22;3211;53.452;-2.264;2022-11-20T14:58:56;9.40;99.90
6357;DHT22;3211;53.452;-2.264;2022-11-20T15:01:26;9.10;99.90
6357;DHT22;3211;53.452;-2.264;2022-11-20T15:04:00;9.10;99.90
6357;DHT22;3211;53.452;-2.264;2022-11-20T15:06:28;8.80;99.90
6357;DHT22;3211;53.452;-2.264;2022-11-20T15:08:57;8.70;99.90
6357;DHT22;3211;53.452;-2.264;2022-11-20T15:11:29;8.50;99.90
6357;DHT22;3211;53.452;-2.264;2022-11-20T15:13:58;8.40;99.90
6357;DHT22;3211;53.452;-2.264;2022-11-20T15:16:28;8.10;99.90
6357;DHT22;3211;53.452;-2.264;2022-11-20T15:18:55;8.10;99.90
6357;DHT22;3211;53.452;-2.264;2022-11-20T15:21:22;7.70;99.90
6357;DHT22;3211;53.452;-2.264;2022-11-20T15:23:51;7.50;99.90
6357;DHT22;3211;53.452;-2.264;2022-11-20T15:26:23;7.30;99.90
6357;DHT22;3211;53.452;-2.264;2022-11-20T15:28:51;7.10;99.90
6357;DHT22;3211;53.452;-2.264;2022-11-20T15:31:20;7.20;99.90
6357;DHT22;3211;53.452;-2.264;2022-11-20T15:33:47;7.20;99.90
6357;DHT22;3211;53.452;-2.264;2022-11-20T15:36:33;7.40;99.90
6357;DHT22;3211;53.452;-2.264;2022-11-20T15:39:20;7.20;99.90
6357;DHT22;3211;53.452;-2.264;2022-11-20T15:41:47;7.30;99.90
6357;DHT22;3211;53.452;-2.264;2022-11-20T15:44:32;7.40;99.90
6357;DHT22;3211;53.452;-2.264;2022-11-20T15:47:00;7.50;99.90
6357;DHT22;3211;53.452;-2.264;2022-11-20T15:49:27;7.60;99.90
6357;DHT22;3211;53.452;-2.264;2022-11-20T15:51:54;7.60;99.90
6357;DHT22;3211;53.452;-2.264;2022-11-20T15:54:23;7.60;99.90
6357;DHT22;3211;53.452;-2.264;2022-11-20T15:56:50;7.70;99.90
6357;DHT22;3211;53.452;-2.264;2022-11-20T15:59:18;7.70;99.90
6357;DHT22;3211;53.452;-2.264;2022-11-20T16:01:45;7.70;99.90
6357;DHT22;3211;53.452;-2.264;2022-11-20T16:04:14;7.70;99.90
6357;DHT22;3211;53.452;-2.264;2022-11-20T16:06:41;7.70;99.90
6357;DHT22;3211;53.452;-2.264;2022-11-20T16:09:08;7.80;99.90
6357;DHT22;3211;53.452;-2.264;2022-11-20T16:11:37;7.70;99.90
6357;DHT22;3211;53.452;-2.264;2022-11-20T16:14:04;7.70;99.90
6357;DHT22;3211;53.452;-2.264;2022-11-20T16:16:49;7.70;99.90
6357;DHT22;3211;53.452;-2.264;2022-11-20T16:19:16;7.70;99.90
6357;DHT22;3211;53.452;-2.264;2022-11-20T16:21:44;7.70;99.90
6357;DHT22;3211;53.452;-2.264;2022-11-20T16:24:13;7.70;99.90
6357;DHT22;3211;53.452;-2.264;2022-11-20T16:26:42;7.70;99.90
6357;DHT22;3211;53.452;-2.264;2022-11-20T16:29:09;7.70;99.90
6357;DHT22;3211;53.452;-2.264;2022-11-20T16:31:36;7.70;99.90
6357;DHT22;3211;53.452;-2.264;2022-11-20T16:34:06;7.70;99.90